Time;durP1;ratioP1;P1;durP2;ratioP2;P2;SDS_P1;SDS_P2;PMS_P1;PMS_P2;Temp;Humidity;BMP_temperature;BMP_pressure;BME280_temperature;BME280_humidity;BME280_pressure;Samples;Min_cycle;Max_cycle;Signal;HPM_P1;HPM_P2
2021/08/16 00:00:05;;;;;;;5.80;2.50;;;;;;;14.66;71.01;99007.09;1713758;81;21241;-64
2021/08/16 00:02:33;;;;;;;5.75;2.37;;;;;;;14.67;71.03;99004.81;1729460;81;21045;-64
2021/08/16 00:05:00;;;;;;;4.73;2.40;;;;;;;14.71;71.11;99003.65;1717712;81;20950;-64
2021/08/16 00:07:27;;;;;;;5.05;2.35;;;;;;;14.72;71.11;99011.88;1713711;81;21860;-64
2021/08/16 00:09:53;;;;;;;6.20;3.30;;;;;;;14.73;71.16;99003.03;1721451;81;21060;-64
2021/08/16 00:12:20;;;;;;;6.03;2.40;;;;;;;14.74;71.16;99004.25;1726562;81;21108;-63
2021/08/16 00:14:47;;;;;;;9.58;2.47;;;;;;;14.75;71.21;99000.65;1721173;81;20895;-64
2021/08/16 00:17:14;;;;;;;6.57;2.40;;;;;;;14.76;71.23;98988.37;1729231;81;21057;-64
2021/08/16 00:19:40;;;;;;;3.33;2.40;;;;;;;14.82;71.41;98980.02;1733227;81;21005;-64
2021/08/16 00:22:07;;;;;;;9.93;2.62;;;;;;;14.82;71.41;98980.02;1734274;81;21737;-64
2021/08/16 00:24:34;;;;;;;4.58;2.60;;;;;;;14.84;71.33;98990.39;1720817;81;22334;-64
2021/08/16 00:27:01;;;;;;;4.22;2.58;;;;;;;14.85;71.36;98987.66;1713613;82;20936;-64
2021/08/16 00:29:27;;;;;;;5.33;2.57;;;;;;;14.87;71.39;98981.82;1719987;82;22185;-64
2021/08/16 00:31:54;;;;;;;6.80;2.72;;;;;;;14.91;71.45;98987.19;1715381;82;21510;-63
2021/08/16 00:34:21;;;;;;;4.73;2.30;;;;;;;14.94;71.45;98984.32;1716620;82;20967;-64
2021/08/16 00:36:47;;;;;;;5.27;2.17;;;;;;;14.96;71.44;98979.79;1707825;82;21447;-63
2021/08/16 00:39:14;;;;;;;3.60;2.30;;;;;;;14.99;71.49;98972.15;1710505;82;21073;-64
2021/08/16 00:41:41;;;;;;;4.77;2.27;;;;;;;15.01;71.54;98966.27;1697033;82;21568;-64
2021/08/16 00:44:08;;;;;;;4.85;2.17;;;;;;;15.04;71.54;98962.56;1704329;82;21481;-64
2021/08/16 00:46:36;;;;;;;4.55;2.37;;;;;;;15.08;71.59;98961.39;1705035;82;21020;-64
2021/08/16 00:49:02;;;;;;;;;;;;;;;15.12;71.57;98957.55;1714729;83;21502;-64
2021/08/16 00:51:31;;;;;;;6.53;2.95;;;;;;;15.16;71.60;98953.74;1702103;82;20198;-64
2021/08/16 00:53:59;;;;;;;4.95;2.75;;;;;;;15.15;71.54;98947.66;1702111;82;21648;-64
2021/08/16 00:56:27;;;;;;;4.75;2.17;;;;;;;15.16;71.54;98943.23;1697345;82;20967;-64
2021/08/16 00:59:02;;;;;;;4.65;2.72;;;;;;;15.19;71.57;98953.50;1703073;82;21603;-64
2021/08/16 01:01:29;;;;;;;5.92;2.65;;;;;;;15.21;71.61;98935.34;1705489;81;21099;-64
2021/08/16 01:03:58;;;;;;;3.40;2.27;;;;;;;15.25;71.60;98934.61;1702610;82;20979;-64
2021/08/16 01:06:26;;;;;;;5.95;2.85;;;;;;;15.27;71.63;98927.44;1699972;82;21557;-64
2021/08/16 01:08:53;;;;;;;4.12;2.70;;;;;;;15.31;71.62;98923.59;1714151;82;21498;-64
2021/08/16 01:11:20;;;;;;;4.50;2.27;;;;;;;15.34;71.58;98915.45;1715606;81;27230;-64
2021/08/16 01:13:48;;;;;;;5.40;2.72;;;;;;;15.35;71.55;98909.25;1705403;81;21921;-64
2021/08/16 01:16:18;;;;;;;4.47;2.90;;;;;;;15.36;71.53;98903.02;1695774;83;21114;-64
2021/08/16 01:18:46;;;;;;;5.97;2.60;;;;;;;15.36;71.53;98899.08;1707555;83;20975;-64
2021/08/16 01:21:14;;;;;;;;;;;;;;;15.34;71.52;98891.78;1703648;83;21031;-64
2021/08/16 01:23:42;;;;;;;5.22;2.52;;;;;;;15.33;71.57;98890.13;1699730;82;20097;-64
2021/08/16 01:26:10;;;;;;;4.95;2.70;;;;;;;15.30;71.53;98878.53;1696505;82;22234;-64
2021/08/16 01:28:37;;;;;;;7.20;2.85;;;;;;;15.27;71.49;98880.10;1702864;83;21013;-63
2021/08/16 01:31:06;;;;;;;5.95;2.77;;;;;;;15.24;71.50;98874.26;1703863;82;22214;-64
2021/08/16 01:33:34;;;;;;;4.05;2.33;;;;;;;15.20;71.53;98863.95;1684565;83;20978;-64
2021/08/16 01:36:01;;;;;;;5.40;2.60;;;;;;;15.18;71.56;98865.06;1704401;82;21010;-64
2021/08/16 01:38:32;;;;;;;8.73;2.70;;;;;;;15.14;71.54;98853.11;1701066;82;21083;-64
2021/08/16 01:40:59;;;;;;;6.80;2.87;;;;;;;15.09;71.52;98852.63;1701300;83;21559;-64
2021/08/16 01:43:26;;;;;;;12.55;3.62;;;;;;;15.04;71.55;98850.84;1705370;82;21559;-64
2021/08/16 01:45:53;;;;;;;6.62;2.52;;;;;;;15.00;71.57;98847.14;1710229;82;21658;-64
2021/08/16 01:48:19;;;;;;;3.90;2.45;;;;;;;14.95;71.61;98838.78;1708445;82;20997;-64
2021/08/16 01:50:47;;;;;;;4.33;2.07;;;;;;;14.93;71.62;98842.03;1675704;83;21499;-64
2021/08/16 01:53:14;;;;;;;3.98;2.33;;;;;;;14.90;71.65;98832.22;1692205;84;21619;-64
2021/08/16 01:55:41;;;;;;;3.90;2.60;;;;;;;14.88;71.67;98838.93;1715427;83;20990;-64
2021/08/16 01:58:10;;;;;;;5.55;2.77;;;;;;;14.85;71.76;98834.41;1689823;82;21054;-64
2021/08/16 02:00:37;;;;;;;6.17;2.70;;;;;;;14.84;71.79;98838.80;1706379;83;21013;-64
2021/08/16 02:03:05;;;;;;;5.17;2.47;;;;;;;14.84;71.77;98824.34;1697081;83;21115;-65
2021/08/16 02:05:32;;;;;;;6.60;2.60;;;;;;;14.84;71.85;98831.39;1701464;82;21559;-64
2021/08/16 02:08:03;;;;;;;5.13;2.40;;;;;;;14.83;71.86;98826.63;1692299;84;20960;-64
2021/08/16 02:10:30;;;;;;;5.25;2.45;;;;;;;14.83;71.91;98829.25;1688645;82;21266;-64
2021/08/16 02:12:57;;;;;;;5.40;2.50;;;;;;;14.85;71.95;98827.34;1678216;83;20990;-64
2021/08/16 02:15:24;;;;;;;8.60;2.50;;;;;;;14.87;71.94;98820.19;1692675;82;21437;-64
2021/08/16 02:17:51;;;;;;;4.15;2.17;;;;;;;14.88;71.97;98810.02;1697458;83;20903;-64
2021/08/16 02:20:18;;;;;;;7.07;3.20;;;;;;;14.91;71.99;98813.72;1700234;82;21522;-64
2021/08/16 02:22:45;;;;;;;5.45;2.72;;;;;;;14.92;71.95;98803.55;1707756;82;20986;-64
2021/08/16 02:25:12;;;;;;;4.75;2.35;;;;;;;14.92;71.97;98804.86;1693874;80;20954;-64
2021/08/16 02:27:47;;;;;;;5.08;2.47;;;;;;;14.92;71.95;98804.86;1759008;80;21100;-64
2021/08/16 02:30:15;;;;;;;4.05;2.02;;;;;;;14.91;71.91;98797.95;1759403;80;20988;-64
2021/08/16 02:32:43;;;;;;;5.08;2.33;;;;;;;14.89;71.90;98797.22;1756897;80;20973;-64
2021/08/16 02:35:12;;;;;;;5.28;2.27;;;;;;;14.86;71.95;98797.47;1729018;81;21023;-64
2021/08/16 02:37:39;;;;;;;4.50;2.10;;;;;;;14.85;71.91;98793.67;1743602;81;21492;-64
2021/08/16 02:40:09;;;;;;;3.87;2.22;;;;;;;14.82;71.95;98786.86;1736430;81;21188;-64
2021/08/16 02:42:36;;;;;;;5.12;2.30;;;;;;;14.80;71.99;98776.11;1738336;81;21519;-64
2021/08/16 02:45:05;;;;;;;4.65;2.22;;;;;;;14.77;71.97;98781.13;1727077;81;21051;-64
2021/08/16 02:47:32;;;;;;;6.20;2.50;;;;;;;14.77;72.04;98777.19;1737879;81;20982;-64
2021/08/16 02:49:58;;;;;;;3.20;2.25;;;;;;;14.74;72.02;98778.27;1734001;81;20978;-64
2021/08/16 02:52:25;;;;;;;4.33;2.02;;;;;;;14.74;72.10;98782.69;1735321;81;22288;-64
2021/08/16 02:54:52;;;;;;;4.90;2.20;;;;;;;14.75;72.07;98780.41;1733054;81;20982;-64
2021/08/16 02:57:21;;;;;;;6.53;2.67;;;;;;;14.73;72.06;98781.00;1728753;81;20989;-64
2021/08/16 02:59:48;;;;;;;4.72;2.50;;;;;;;14.73;72.07;98775.74;1744654;81;22239;-64
2021/08/16 03:02:14;;;;;;;4.17;2.42;;;;;;;14.73;72.07;98786.25;1725342;81;20993;-64
2021/08/16 03:04:41;;;;;;;4.72;2.45;;;;;;;14.74;72.12;98786.63;1738919;81;21115;-64
2021/08/16 03:07:09;;;;;;;5.00;2.70;;;;;;;14.74;72.15;98782.69;1749669;79;21002;-64
2021/08/16 03:09:36;;;;;;;5.20;2.10;;;;;;;14.75;72.11;98781.72;1742022;80;21001;-64
2021/08/16 03:12:03;;;;;;;3.80;2.37;;;;;;;14.76;72.11;98779.47;1753306;80;21233;-64
2021/08/16 03:14:30;;;;;;;5.03;2.42;;;;;;;14.76;72.12;98767.64;1753237;79;20950;-64
2021/08/16 03:16:57;;;;;;;7.05;2.52;;;;;;;14.76;72.15;98765.02;1761961;79;21128;-64
2021/08/16 03:19:23;;;;;;;6.73;2.40;;;;;;;14.77;72.12;98774.56;1749119;80;20962;-64
2021/08/16 03:21:50;;;;;;;4.65;2.45;;;;;;;14.77;72.14;98773.25;1754248;80;21361;-64
2021/08/16 03:24:17;;;;;;;4.77;2.80;;;;;;;14.77;72.17;98771.94;1755408;80;21491;-64
2021/08/16 03:26:43;;;;;;;8.33;2.33;;;;;;;14.76;72.11;98765.02;1755036;80;21088;-64
2021/08/16 03:29:11;;;;;;;3.60;2.50;;;;;;;14.76;72.18;98762.39;1758633;80;21123;-64
2021/08/16 03:31:38;;;;;;;5.22;2.42;;;;;;;14.77;72.18;98769.30;1755389;80;21017;-64
2021/08/16 03:34:04;;;;;;;4.37;2.60;;;;;;;14.77;72.16;98764.88;1740512;80;21039;-64
2021/08/16 03:36:31;;;;;;;4.80;2.60;;;;;;;14.78;72.23;98757.83;1731068;81;21025;-64
2021/08/16 03:38:58;;;;;;;7.47;2.67;;;;;;;14.82;72.25;98760.58;1744682;81;21020;-64
2021/08/16 03:41:25;;;;;;;2.85;2.12;;;;;;;14.86;72.25;98755.91;1735072;81;21109;-64
2021/08/16 03:43:51;;;;;;;9.37;3.20;;;;;;;14.89;72.24;98751.23;1751233;80;21647;-64
2021/08/16 03:46:18;;;;;;;6.20;2.70;;;;;;;14.95;72.26;98744.16;1758972;80;20994;-64
2021/08/16 03:48:46;;;;;;;7.72;3.37;;;;;;;15.07;72.36;98741.49;1753345;80;20978;-64
2021/08/16 03:51:13;;;;;;;7.33;3.10;;;;;;;15.26;72.38;98739.03;1750129;80;20986;-64
2021/08/16 03:53:40;;;;;;;5.92;3.30;;;;;;;15.54;72.36;98734.12;1758277;80;21508;-64
2021/08/16 03:56:10;;;;;;;8.75;2.52;;;;;;;15.81;72.23;98733.64;1751245;80;20957;-64
2021/08/16 03:58:35;;;;;;;8.55;3.40;;;;;;;16.24;72.15;98725.52;1750241;80;21019;-64
2021/08/16 04:01:01;;;;;;;5.22;2.90;;;;;;;16.40;71.63;98722.89;1747550;80;21057;-65
2021/08/16 04:03:28;;;;;;;4.63;2.70;;;;;;;16.42;71.63;98719.64;1753102;80;21004;-64
2021/08/16 04:05:55;;;;;;;6.60;3.27;;;;;;;16.65;71.83;98721.08;1753403;80;21640;-64
2021/08/16 04:08:21;;;;;;;3.98;2.90;;;;;;;17.16;71.91;98720.55;1754304;80;20974;-64
2021/08/16 04:10:48;;;;;;;5.28;3.25;;;;;;;17.82;71.57;98718.50;1754246;80;21614;-64
2021/08/16 04:13:15;;;;;;;5.35;2.85;;;;;;;18.37;71.15;98713.27;1752169;80;21531;-65
2021/08/16 04:15:41;;;;;;;4.42;2.85;;;;;;;18.49;70.19;98716.08;1752876;80;20983;-65
2021/08/16 04:18:08;;;;;;;6.30;3.12;;;;;;;18.40;70.25;98716.11;1751995;80;21061;-64
2021/08/16 04:20:35;;;;;;;4.67;2.83;;;;;;;18.49;70.32;98714.75;1748197;80;20934;-65
2021/08/16 04:23:01;;;;;;;10.75;3.58;;;;;;;18.86;70.64;98711.22;1756219;80;20933;-65
2021/08/16 04:25:28;;;;;;;7.35;3.17;;;;;;;19.73;70.51;98712.30;1743578;80;21016;-65
2021/08/16 04:27:55;;;;;;;7.95;3.42;;;;;;;20.63;69.80;98710.11;1747059;80;21499;-65
2021/08/16 04:30:21;;;;;;;7.40;3.42;;;;;;;21.35;69.02;98698.95;1734533;81;21098;-65
2021/08/16 04:32:48;;;;;;;7.30;3.40;;;;;;;21.84;68.82;98701.56;1733757;81;20966;-65
2021/08/16 04:35:15;;;;;;;10.28;3.52;;;;;;;22.69;68.72;98692.98;1719126;82;20987;-65
2021/08/16 04:37:42;;;;;;;5.70;3.85;;;;;;;23.51;67.79;98697.73;1734580;81;21473;-65
2021/08/16 04:40:10;;;;;;;6.80;3.20;;;;;;;24.00;67.23;98684.78;1734461;81;21054;-65
2021/08/16 04:42:38;;;;;;;5.47;3.30;;;;;;;24.54;66.57;98678.31;1726478;81;21080;-66
2021/08/16 04:45:08;;;;;;;10.70;3.50;;;;;;;24.98;66.33;98679.99;1731708;81;20962;-65
2021/08/16 04:47:35;;;;;;;9.15;3.62;;;;;;;25.43;65.55;98680.63;1730110;81;20931;-66
2021/08/16 04:50:04;;;;;;;10.20;3.77;;;;;;;25.76;64.89;98674.71;1732887;80;21613;-66
2021/08/16 04:52:30;;;;;;;8.35;3.52;;;;;;;25.88;63.86;98671.34;1732699;81;21017;-65
2021/08/16 04:54:57;;;;;;;10.53;3.27;;;;;;;25.32;63.64;98689.17;1727957;81;21058;-66
2021/08/16 04:57:29;;;;;;;11.73;3.62;;;;;;;24.88;63.41;98687.52;1725967;81;21014;-65
2021/08/16 04:59:56;;;;;;;7.80;3.52;;;;;;;24.45;62.83;98679.41;1727828;81;21539;-65
2021/08/16 05:02:23;;;;;;;10.58;4.15;;;;;;;23.81;62.75;98685.33;1722317;81;21104;-65
2021/08/16 05:04:53;;;;;;;6.45;3.65;;;;;;;23.34;63.01;98685.88;1727284;81;25121;-65
2021/08/16 05:07:18;;;;;;;8.23;3.40;;;;;;;22.95;62.69;98677.53;1737179;81;21084;-65
2021/08/16 05:09:44;;;;;;;13.78;4.20;;;;;;;22.50;62.56;98673.78;1728487;81;20918;-65
2021/08/16 05:12:11;;;;;;;10.60;4.08;;;;;;;22.36;62.77;98671.86;1723518;81;20966;-65
2021/08/16 05:14:38;;;;;;;;;;;;;;;22.60;62.94;98680.70;1738363;81;21020;-65
2021/08/16 05:17:05;;;;;;;14.20;4.33;;;;;;;22.68;62.21;98683.33;1739924;79;21667;-65
2021/08/16 05:19:37;;;;;;;6.80;3.83;;;;;;;22.82;62.27;98681.74;1735556;80;21438;-65
2021/08/16 05:22:01;;;;;;;10.93;4.15;;;;;;;22.91;62.35;98682.01;1709998;82;20979;-65
2021/08/16 05:24:28;;;;;;;5.70;3.95;;;;;;;23.28;62.08;98679.95;1737829;80;21198;-65
2021/08/16 05:26:55;;;;;;;6.12;3.72;;;;;;;23.31;61.35;98672.93;1733622;80;20963;-63
2021/08/16 05:29:41;;;;;;;5.92;3.72;;;;;;;23.09;61.00;98676.44;1732018;81;21108;-63
2021/08/16 05:34:18;;;;;;;5.80;3.90;;;;;;;22.33;60.73;98669.55;1840890;75;22532;-65
2021/08/16 05:36:57;;;;;;;9.20;4.08;;;;;;;22.45;61.69;98668.16;1812291;77;21044;-64
2021/08/16 05:39:31;;;;;;;7.17;3.67;;;;;;;23.58;61.70;98672.01;1792614;77;21043;-64
2021/08/16 05:42:00;;;;;;;7.65;3.95;;;;;;;24.88;61.22;98672.31;1819285;78;20911;-64
2021/08/16 05:44:28;;;;;;;22.40;4.87;;;;;;;25.92;60.45;98663.74;1813874;77;21036;-63
2021/08/16 05:46:54;;;;;;;15.18;4.20;;;;;;;26.86;60.09;98659.10;1816037;78;20973;-64
2021/08/16 05:49:23;;;;;;;31.37;6.05;;;;;;;27.63;59.54;98658.22;1817313;77;21004;-65
2021/08/16 05:51:51;;;;;;;27.87;5.05;;;;;;;28.38;58.82;98653.28;1819486;77;21590;-64
2021/08/16 05:54:18;;;;;;;6.28;3.17;;;;;;;28.83;57.90;98647.09;1812389;77;21140;-65
2021/08/16 05:56:44;;;;;;;35.25;5.47;;;;;;;28.96;57.04;98649.66;1811454;78;20913;-63
2021/08/16 05:59:11;;;;;;;18.02;3.58;;;;;;;29.12;56.89;98657.23;1808373;77;22056;-64
2021/08/16 06:01:40;;;;;;;10.18;3.92;;;;;;;29.00;56.56;98654.92;1820239;77;20966;-64
2021/08/16 06:04:08;;;;;;;7.25;4.08;;;;;;;29.25;56.27;98643.41;1806729;77;21494;-64
2021/08/16 06:06:35;;;;;;;14.25;4.95;;;;;;;29.42;55.86;98641.80;1820158;77;20903;-65
2021/08/16 06:09:05;;;;;;;8.23;4.70;;;;;;;29.49;55.18;98633.13;1825832;77;20962;-65
2021/08/16 06:11:32;;;;;;;10.80;4.33;;;;;;;29.75;55.00;98631.28;1822991;77;20939;-64
2021/08/16 06:13:59;;;;;;;30.00;6.83;;;;;;;29.96;54.62;98633.52;1822908;78;22013;-65
2021/08/16 06:16:26;;;;;;;27.62;8.18;;;;;;;30.18;54.14;98633.06;1817387;77;21067;-65
2021/08/16 06:18:52;;;;;;;12.55;5.92;;;;;;;30.40;53.66;98632.91;1808784;77;21562;-64
2021/08/16 06:21:20;;;;;;;19.82;5.58;;;;;;;30.55;52.78;98613.11;1813149;77;21496;-65
2021/08/16 06:23:48;;;;;;;25.75;5.55;;;;;;;30.58;52.40;98616.41;1819675;78;20972;-64
2021/08/16 06:26:14;;;;;;;9.70;4.10;;;;;;;30.65;52.19;98609.88;1821599;77;21506;-64
2021/08/16 06:28:42;;;;;;;42.27;6.37;;;;;;;31.01;51.94;98614.05;1827468;77;21518;-64
2021/08/16 06:31:08;;;;;;;9.98;3.50;;;;;;;31.36;51.05;98617.61;1824529;77;21043;-64
2021/08/16 06:33:41;;;;;;;10.78;3.95;;;;;;;31.03;49.71;98615.97;1794196;78;20941;-65
2021/08/16 06:36:08;;;;;;;19.62;5.37;;;;;;;30.92;50.33;98615.73;1779094;80;20965;-66
2021/08/16 06:38:35;;;;;;;49.25;6.83;;;;;;;31.10;50.12;98608.61;1751733;80;21095;-67
2021/08/16 06:41:03;;;;;;;24.07;4.87;;;;;;;31.26;49.34;98613.31;1778623;80;21088;-66
2021/08/16 06:43:32;;;;;;;15.72;3.95;;;;;;;31.28;48.68;98605.79;1778576;78;20952;-66
2021/08/16 06:45:59;;;;;;;11.88;3.98;;;;;;;31.22;48.61;98604.84;1789281;80;21497;-66
2021/08/16 06:48:26;;;;;;;14.40;4.37;;;;;;;31.22;47.88;98612.13;1757561;78;20994;-66
2021/08/16 06:50:54;;;;;;;48.33;7.17;;;;;;;31.02;47.82;98607.59;1774185;78;21036;-66
2021/08/16 06:53:20;;;;;;;74.00;7.90;;;;;;;31.02;47.35;98600.86;1788891;80;21064;-66
2021/08/16 06:55:47;;;;;;;12.35;4.15;;;;;;;30.90;46.86;98598.96;1776624;78;21458;-66
2021/08/16 06:58:14;;;;;;;42.38;6.92;;;;;;;30.73;46.44;98603.35;1786126;78;21563;-66
2021/08/16 07:00:43;;;;;;;8.53;3.37;;;;;;;30.60;46.45;98599.50;1779581;78;21001;-66
2021/08/16 07:03:10;;;;;;;32.35;5.17;;;;;;;30.73;45.91;98600.66;1780486;80;21019;-66
2021/08/16 07:05:43;;;;;;;8.23;3.40;;;;;;;30.83;46.06;98590.68;1775269;78;21113;-66
2021/08/16 07:08:12;;;;;;;22.82;4.78;;;;;;;30.96;45.67;98588.59;1787862;78;21008;-66
2021/08/16 07:10:41;;;;;;;56.42;7.60;;;;;;;31.03;45.53;98586.31;1776779;78;21065;-66
2021/08/16 07:13:11;;;;;;;11.03;4.05;;;;;;;31.08;45.58;98587.79;1787908;78;21049;-66
2021/08/16 07:15:38;;;;;;;7.47;3.25;;;;;;;31.01;44.86;98581.17;1781585;78;21035;-66
2021/08/16 07:18:06;;;;;;;21.87;4.45;;;;;;;30.75;44.20;98578.32;1791718;80;21985;-66
2021/08/16 07:20:33;;;;;;;7.83;3.20;;;;;;;30.60;44.34;98581.98;1782649;78;21035;-65
2021/08/16 07:23:00;;;;;;;12.88;3.47;;;;;;;30.59;44.44;98572.28;1774114;80;20944;-65
2021/08/16 07:25:27;;;;;;;13.48;4.12;;;;;;;30.31;43.98;98573.70;1781943;78;20937;-65
2021/08/16 07:27:53;;;;;;;41.80;5.87;;;;;;;29.95;43.80;98569.17;1784092;78;20984;-65
2021/08/16 07:31:31;;;;;;;14.30;4.15;;;;;;;29.66;43.83;98575.08;1860905;75;22672;-65
2021/08/16 07:33:58;;;;;;;34.78;5.08;;;;;;;29.30;43.93;98583.09;1849144;76;21001;-65
2021/08/16 07:36:25;;;;;;;66.85;8.45;;;;;;;28.76;43.49;98580.81;1834184;76;21040;-66
2021/08/16 07:38:52;;;;;;;37.85;6.35;;;;;;;28.26;43.52;98577.98;1839259;76;21005;-65
2021/08/16 07:41:18;;;;;;;12.40;3.80;;;;;;;27.99;43.95;98577.27;1836082;77;21000;-65
2021/08/16 07:43:45;;;;;;;11.18;3.52;;;;;;;27.87;44.06;98586.50;1840926;76;21016;-66
2021/08/16 07:46:12;;;;;;;;;;;;;;;27.70;43.97;98582.61;1839464;77;22032;-65
2021/08/16 07:48:38;;;;;;;7.08;3.70;;;;;;;27.62;44.09;98581.50;1829246;77;21099;-65
2021/08/16 07:51:04;;;;;;;;;;;;;;;27.67;44.32;98581.67;1843351;76;20957;-64
2021/08/16 07:53:31;;;;;;;19.55;4.60;;;;;;;27.63;44.22;98577.77;1835308;75;20141;-64
2021/08/16 07:55:57;;;;;;;;;;;;;;;27.51;44.55;98577.60;1844341;76;20997;-65
2021/08/16 07:58:24;;;;;;;10.32;4.40;;;;;;;27.83;44.86;98558.45;1836032;77;20514;-65
2021/08/16 08:00:52;;;;;;;8.38;3.87;;;;;;;28.18;44.87;98555.42;1842873;77;21320;-65
2021/08/16 08:03:20;;;;;;;12.60;4.15;;;;;;;28.36;44.48;98551.19;1853028;77;21318;-65
2021/08/16 08:05:47;;;;;;;6.53;3.98;;;;;;;28.42;44.57;98558.37;1830068;75;20958;-65
2021/08/16 08:08:14;;;;;;;24.23;5.20;;;;;;;28.63;44.56;98562.09;1831777;76;20989;-64
2021/08/16 08:10:40;;;;;;;18.17;4.22;;;;;;;28.67;44.61;98557.92;1838910;76;20965;-64
2021/08/16 08:13:07;;;;;;;22.22;5.12;;;;;;;28.75;44.32;98556.31;1839783;76;23158;-65
2021/08/16 08:15:34;;;;;;;29.65;5.35;;;;;;;28.70;44.48;98552.11;1839531;77;20926;-65
2021/08/16 08:18:00;;;;;;;;;;;;;;;28.58;44.15;98543.64;1840571;76;21052;-65
2021/08/16 08:20:27;;;;;;;13.90;4.20;;;;;;;28.17;43.91;98544.36;1839448;76;20134;-65
2021/08/16 08:25:28;;;;;;;6.97;4.03;;;;;;;28.16;44.39;98544.06;1882357;74;23629;-65
2021/08/16 08:27:57;;;;;;;10.10;4.62;;;;;;;28.17;44.36;98536.31;1847866;75;20981;-64
2021/08/16 08:30:25;;;;;;;8.50;3.70;;;;;;;28.21;44.16;98537.54;1851603;77;21146;-64
2021/08/16 08:32:55;;;;;;;13.05;4.50;;;;;;;28.20;44.09;98538.56;1857045;75;20989;-65
2021/08/16 08:35:23;;;;;;;15.55;4.83;;;;;;;28.18;44.24;98539.84;1844402;76;21532;-64
2021/08/16 08:37:51;;;;;;;85.12;9.20;;;;;;;28.24;44.28;98538.45;1842858;76;20917;-65
2021/08/16 08:40:18;;;;;;;16.60;4.80;;;;;;;28.22;44.07;98540.52;1846453;76;21007;-65
2021/08/16 08:42:52;;;;;;;13.62;4.40;;;;;;;28.15;43.70;98534.38;1855247;76;21517;-65
2021/08/16 08:45:35;;;;;;;43.48;6.40;;;;;;;27.99;43.71;98545.61;1845643;75;21520;-63
2021/08/16 08:48:18;;;;;;;85.20;10.30;;;;;;;27.99;44.11;98541.58;1854863;76;20962;-65
2021/08/16 08:50:50;;;;;;;7.92;3.75;;;;;;;27.97;43.87;98534.25;1850198;76;20975;-65
2021/08/16 08:53:33;;;;;;;70.72;8.78;;;;;;;27.93;43.75;98541.91;1853336;76;20922;-64
2021/08/16 08:56:16;;;;;;;203.62;22.42;;;;;;;27.87;43.92;98536.88;1836714;75;21424;-65
2021/08/16 08:58:42;;;;;;;157.85;12.88;;;;;;;27.98;44.27;98539.91;1850351;77;21683;-65
2021/08/16 09:01:09;;;;;;;70.28;9.55;;;;;;;28.10;44.03;98539.56;1848529;75;20876;-65
2021/08/16 09:04:56;;;;;;;89.80;9.67;;;;;;;28.26;43.85;98539.06;1818056;75;23347;-64
2021/08/16 09:07:35;;;;;;;18.92;4.22;;;;;;;28.20;43.64;98535.88;1822524;77;21507;-64
2021/08/16 09:10:07;;;;;;;110.68;10.93;;;;;;;28.00;43.35;98535.17;1819398;77;21878;-64
2021/08/16 09:12:36;;;;;;;52.45;7.15;;;;;;;27.71;43.41;98534.64;1815154;77;21180;-64
2021/08/16 09:15:11;;;;;;;10.98;3.72;;;;;;;27.62;43.46;98530.56;1751925;80;21030;-64
2021/08/16 09:17:38;;;;;;;80.47;8.20;;;;;;;27.55;43.31;98522.52;1758091;80;21001;-65
2021/08/16 09:20:15;;;;;;;30.37;5.10;;;;;;;27.33;43.46;98527.31;1758460;79;22323;-64
2021/08/16 09:22:42;;;;;;;12.85;4.67;;;;;;;27.44;43.67;98529.34;1753931;80;22003;-64
2021/08/16 09:25:11;;;;;;;;;;;;;;;27.34;43.61;98528.98;1754353;80;21784;-64
2021/08/16 09:27:48;;;;;;;62.93;6.95;;;;;;;27.54;43.89;98522.75;1754914;80;20182;-64
2021/08/16 09:30:16;;;;;;;13.18;4.33;;;;;;;27.70;43.67;98519.60;1779796;79;21652;-65
2021/08/16 09:32:44;;;;;;;7.40;3.42;;;;;;;27.88;43.91;98521.08;1774031;79;21065;-64
2021/08/16 09:35:14;;;;;;;93.15;14.73;;;;;;;28.19;43.76;98519.48;1775370;79;21123;-64
2021/08/16 09:37:41;;;;;;;157.52;21.48;;;;;;;28.37;43.71;98524.63;1776984;79;21090;-64
2021/08/16 09:40:20;;;;;;;35.85;5.72;;;;;;;28.50;43.55;98516.53;1776705;79;20986;-64
2021/08/16 09:42:52;;;;;;;30.12;5.80;;;;;;;28.58;43.47;98516.27;1775713;78;21020;-65
2021/08/16 09:45:37;;;;;;;79.90;9.10;;;;;;;28.52;43.30;98517.14;1783500;79;20948;-65
2021/08/16 09:48:07;;;;;;;14.75;3.55;;;;;;;28.53;43.05;98502.67;1782082;79;22232;-66
2021/08/16 09:50:44;;;;;;;49.08;7.45;;;;;;;28.61;43.21;98512.33;1773444;79;20916;-65
2021/08/16 09:53:15;;;;;;;15.88;3.75;;;;;;;28.57;42.82;98509.27;1777705;79;22144;-63
2021/08/16 09:55:46;;;;;;;7.87;3.08;;;;;;;28.40;42.57;98502.23;1779021;80;20922;-63
2021/08/16 09:58:16;;;;;;;95.90;10.53;;;;;;;28.29;42.74;98502.40;1780922;79;21037;-63
2021/08/16 10:00:46;;;;;;;149.72;19.60;;;;;;;28.36;42.78;98496.98;1775655;80;21063;-65
2021/08/16 10:03:13;;;;;;;45.90;9.23;;;;;;;28.46;42.50;98487.14;1778670;80;21006;-65
2021/08/16 10:05:44;;;;;;;50.63;8.20;;;;;;;28.43;42.37;98480.84;1776899;80;21068;-65
2021/08/16 10:08:14;;;;;;;61.77;8.40;;;;;;;28.32;42.13;98488.54;1776794;79;21508;-65
2021/08/16 10:10:43;;;;;;;8.48;3.08;;;;;;;28.30;42.18;98479.88;1775487;79;21171;-65
2021/08/16 10:13:11;;;;;;;33.63;4.55;;;;;;;28.27;41.84;98477.63;1774562;79;21118;-65
2021/08/16 10:15:47;;;;;;;137.15;15.60;;;;;;;28.21;42.04;98475.00;1777840;79;21021;-65
2021/08/16 10:18:21;;;;;;;163.50;19.02;;;;;;;28.37;41.96;98470.95;1773864;79;21493;-65
2021/08/16 10:20:49;;;;;;;9.70;3.40;;;;;;;28.58;41.97;98465.25;1774940;79;21532;-64
2021/08/16 10:23:19;;;;;;;9.35;3.10;;;;;;;28.63;41.92;98465.41;1776103;79;20967;-65
2021/08/16 10:25:48;;;;;;;7.22;3.22;;;;;;;28.82;41.97;98465.45;1774511;79;22027;-63
2021/08/16 10:28:32;;;;;;;4.40;2.67;;;;;;;29.02;41.97;98463.41;1778295;79;20966;-62
2021/08/16 10:31:02;;;;;;;8.48;3.35;;;;;;;29.06;41.60;98468.66;1775031;79;21572;-62
2021/08/16 10:33:33;;;;;;;12.40;3.80;;;;;;;29.17;41.96;98463.88;1776433;79;21490;-62
2021/08/16 10:36:00;;;;;;;103.32;9.40;;;;;;;29.25;41.57;98459.27;1776520;78;21042;-63
2021/08/16 10:38:26;;;;;;;;;;;;;;;29.12;41.42;98450.29;1783880;79;22181;-62
2021/08/16 10:40:56;;;;;;;9.03;2.85;;;;;;;29.11;41.37;98455.38;1777725;80;20087;-63
2021/08/16 10:43:32;;;;;;;132.55;17.07;;;;;;;29.33;41.59;98445.53;1778868;79;21558;-63
2021/08/16 10:46:01;;;;;;;60.00;6.90;;;;;;;29.41;41.33;98439.86;1751994;81;21752;-63
2021/08/16 10:48:35;;;;;;;10.75;3.05;;;;;;;29.48;41.07;98451.33;1774836;79;21081;-63
2021/08/16 10:51:07;;;;;;;17.00;3.72;;;;;;;29.39;40.78;98443.28;1772294;80;21103;-65
2021/08/16 10:53:51;;;;;;;17.50;3.77;;;;;;;29.33;40.64;98430.75;1781707;79;22468;-64
2021/08/16 10:56:23;;;;;;;18.25;3.15;;;;;;;29.36;40.40;98434.33;1781945;79;20974;-65
2021/08/16 10:58:52;;;;;;;4.95;1.90;;;;;;;29.52;40.49;98441.78;1775555;79;21048;-65
2021/08/16 11:01:32;;;;;;;12.58;2.92;;;;;;;29.69;40.02;98447.89;1770855;79;21037;-65
2021/08/16 11:04:05;;;;;;;12.05;2.87;;;;;;;29.60;39.75;98438.76;1778435;79;21079;-65
2021/08/16 11:06:32;;;;;;;13.95;2.77;;;;;;;29.43;39.55;98437.73;1769197;79;20970;-65
2021/08/16 11:09:05;;;;;;;37.00;6.10;;;;;;;29.35;39.41;98429.98;1773500;79;20955;-65
2021/08/16 11:11:33;;;;;;;33.60;4.90;;;;;;;29.33;39.47;98434.78;1747537;79;21569;-66
2021/08/16 11:14:09;;;;;;;33.80;3.62;;;;;;;29.44;39.16;98435.37;1738012;82;21042;-65
2021/08/16 11:16:54;;;;;;;9.18;2.85;;;;;;;29.56;39.06;98429.52;1768867;79;23870;-65
2021/08/16 11:19:22;;;;;;;11.22;2.60;;;;;;;29.27;38.40;98436.50;1769040;79;21124;-64
2021/08/16 11:21:59;;;;;;;33.08;4.87;;;;;;;28.86;38.27;98436.59;1771796;79;20997;-65
2021/08/16 11:24:35;;;;;;;13.62;2.55;;;;;;;28.62;38.39;98438.24;1742011;81;21050;-65
2021/08/16 11:27:10;;;;;;;7.35;2.47;;;;;;;28.51;38.24;98433.09;1738604;80;21025;-65
2021/08/16 11:29:38;;;;;;;5.58;2.45;;;;;;;28.47;38.14;98436.42;1768440;79;21055;-65
2021/08/16 11:32:06;;;;;;;9.28;2.70;;;;;;;28.40;38.27;98430.24;1777417;79;20996;-65
2021/08/16 11:34:47;;;;;;;148.78;13.53;;;;;;;28.48;38.33;98430.00;1751657;79;21896;-65
2021/08/16 11:37:16;;;;;;;25.20;3.90;;;;;;;28.81;38.58;98420.83;1774906;80;20981;-68
2021/08/16 11:39:47;;;;;;;12.33;3.27;;;;;;;29.28;38.53;98422.53;1753222;80;21665;-70
2021/08/16 11:42:18;;;;;;;20.97;4.05;;;;;;;29.40;38.38;98416.69;1768114;79;21049;-69
2021/08/16 11:45:00;;;;;;;9.28;2.55;;;;;;;29.49;38.43;98412.62;1763636;79;22206;-69